EGGD

Bristol International Airport

Bristol, United Kingdom
METAR EGGD 151920Z AUTO 26009KT 9999 NCD 20/14 Q1015
Observed Flight Rules
Jul-15 @ 19:20 UTC (17 minutes ago) Visual Flight Rules
Wind Visibility Clouds
260° at 9 knots 10,000+ meters
  • Clear skies
Temperatures Readings
Current 20°C / 68°F
Dewpoint 14°C / 57°F
Humidity 69%
Altimeter 29.97" Hg
Pressure 1015 hPa
Elevation 189
METAR EGGD 151920Z AUTO 26009KT 9999 NCD 20/14 Q1015
Observed Flight Rules
Jul-15 @ 19:20 UTC
(17 minutes ago)
VFR
Wind Visibility
260° at 9 knots 10,000+ meters
Clouds
  • Clear skies
Temperature Dewpoint
20°C / 68°F 14°C / 57°F
Humidity Altimeter Pressure
69% 29.97" Hg 1015 hPa